createdAt,value
2019-05-12T00:00:23.275Z,102945.25
2019-05-12T00:02:52.708Z,102952.06
2019-05-12T00:05:22.147Z,102958.33
2019-05-12T00:07:51.555Z,102962.52
2019-05-12T00:10:21.028Z,102959.66
2019-05-12T00:12:50.445Z,102966.17
2019-05-12T00:15:20.411Z,102957.39
2019-05-12T00:17:49.858Z,102964.25
2019-05-12T00:20:19.282Z,102976.28
2019-05-12T00:22:50.496Z,102970.29
2019-05-12T00:25:19.967Z,102966.67
2019-05-12T00:27:49.372Z,102969.94
2019-05-12T00:30:30.546Z,102980.66
2019-05-12T00:33:00.625Z,102978.95
2019-05-12T00:35:30.181Z,102979.70
2019-05-12T00:38:00.034Z,102974.15
2019-05-12T00:40:29.504Z,102975.85
2019-05-12T00:42:58.999Z,102975.53
2019-05-12T00:45:29.187Z,102989.36
2019-05-12T00:47:59.102Z,102987.05
2019-05-12T00:50:29.038Z,102983.52
2019-05-12T00:52:58.566Z,102995.47
2019-05-12T00:55:28.947Z,102993.59
2019-05-12T00:57:58.720Z,102993.92
2019-05-12T01:00:29.639Z,102994.84
2019-05-12T01:02:59.314Z,102996.69
2019-05-12T01:05:29.396Z,103001.47
2019-05-12T01:07:59.037Z,103003.63
2019-05-12T01:10:28.838Z,103002.89
2019-05-12T01:12:58.567Z,103008.68
2019-05-12T01:15:28.960Z,103006.00
2019-05-12T01:17:58.818Z,103010.59
2019-05-12T01:20:30.030Z,103007.72
2019-05-12T01:22:59.445Z,103012.42
2019-05-12T01:25:29.302Z,103021.91
2019-05-12T01:27:59.167Z,103019.74
2019-05-12T01:30:28.805Z,103031.77
2019-05-12T01:32:58.520Z,103040.67
2019-05-12T01:35:28.545Z,103050.31
2019-05-12T01:37:58.715Z,103060.03
2019-05-12T01:40:29.203Z,103053.47
2019-05-12T01:42:58.673Z,103052.95
2019-05-12T01:45:28.946Z,103045.66
2019-05-12T01:47:59.417Z,103053.72
2019-05-12T01:50:28.898Z,103047.50
2019-05-12T01:52:59.050Z,103058.13
2019-05-12T01:55:28.594Z,103064.08
2019-05-12T01:57:58.254Z,103070.91
2019-05-12T02:00:28.515Z,103069.83
2019-05-12T02:02:58.765Z,103066.35
2019-05-12T02:05:28.651Z,103060.73
2019-05-12T02:07:59.244Z,103082.80
2019-05-12T02:10:29.011Z,103088.45
2019-05-12T02:12:59.521Z,103087.34
2019-05-12T02:15:29.349Z,103089.95
2019-05-12T02:17:59.158Z,103094.75
2019-05-12T02:20:29.046Z,103094.02
2019-05-12T02:22:58.727Z,103103.36
2019-05-12T02:25:28.928Z,103105.55
2019-05-12T02:27:58.776Z,103113.27
2019-05-12T02:30:30.195Z,103113.94
2019-05-12T02:32:59.975Z,103115.42
2019-05-12T02:35:29.463Z,103114.00
2019-05-12T02:37:59.237Z,103109.17
2019-05-12T02:40:28.854Z,103125.45
2019-05-12T02:42:58.604Z,103129.08
2019-05-12T02:45:28.030Z,103138.02
2019-05-12T02:47:57.430Z,103141.55
2019-05-12T02:50:37.170Z,103158.33
2019-05-12T02:53:07.111Z,103163.06
2019-05-12T02:55:37.029Z,103167.75
2019-05-12T02:58:06.958Z,103160.12
2019-05-12T03:00:37.390Z,103166.11
2019-05-12T03:03:09.424Z,103171.33
2019-05-12T03:05:44.083Z,103162.51
2019-05-12T03:08:15.666Z,103170.28
2019-05-12T03:10:48.663Z,103163.51
2019-05-12T03:13:18.142Z,103167.50
2019-05-12T03:15:47.567Z,103182.72
2019-05-12T03:18:16.944Z,103183.25
2019-05-12T03:20:46.425Z,103193.70
2019-05-12T03:23:19.440Z,103197.86
2019-05-12T03:25:47.419Z,103199.48
2019-05-12T03:28:16.839Z,103200.64
2019-05-12T03:30:49.183Z,103203.06
2019-05-12T03:33:20.390Z,103207.42
2019-05-12T03:35:52.894Z,103212.83
2019-05-12T03:38:24.270Z,103212.02
2019-05-12T03:40:55.120Z,103218.75
2019-05-12T03:43:24.380Z,103219.56
2019-05-12T03:45:55.839Z,103222.58
2019-05-12T03:48:25.452Z,103232.47
2019-05-12T03:50:54.885Z,103236.41
2019-05-12T03:53:24.909Z,103236.95
2019-05-12T03:55:55.369Z,103239.23
2019-05-12T03:58:25.711Z,103247.00
2019-05-12T04:00:55.649Z,103247.92
2019-05-12T04:03:25.175Z,103259.40
2019-05-12T04:05:55.348Z,103262.14
2019-05-12T04:08:25.129Z,103261.66
2019-05-12T04:10:54.864Z,103268.80
2019-05-12T04:13:26.566Z,103271.16
2019-05-12T04:15:55.859Z,103269.42
2019-05-12T04:18:25.472Z,103272.05
2019-05-12T04:20:54.952Z,103281.44
2019-05-12T04:23:24.866Z,103285.38
2019-05-12T04:26:07.149Z,103289.77
2019-05-12T04:28:26.163Z,103283.30
2019-05-12T04:30:55.960Z,103288.84
2019-05-12T04:33:25.901Z,103287.37
2019-05-12T04:35:55.672Z,103291.28
2019-05-12T04:38:25.297Z,103284.23
2019-05-12T04:40:55.717Z,103288.24
2019-05-12T04:43:25.619Z,103295.38
2019-05-12T04:45:55.334Z,103291.56
2019-05-12T04:48:25.692Z,103295.23
2019-05-12T04:50:55.647Z,103299.12
2019-05-12T04:53:25.475Z,103303.27
2019-05-12T04:56:07.405Z,103303.50
2019-05-12T04:58:26.140Z,103305.22
2019-05-12T05:00:55.601Z,103311.21
2019-05-12T05:03:25.043Z,103316.19
2019-05-12T05:05:54.990Z,103309.66
2019-05-12T05:08:24.620Z,103306.41
2019-05-12T05:10:54.809Z,103307.17
2019-05-12T05:13:25.553Z,103305.40
2019-05-12T05:15:56.587Z,103313.98
2019-05-12T05:18:26.044Z,103312.75
2019-05-12T05:20:55.446Z,103317.91
2019-05-12T05:23:24.854Z,103324.89
2019-05-12T05:25:54.250Z,103324.20
2019-05-12T05:28:23.793Z,103333.87
2019-05-12T05:30:53.641Z,103332.75
2019-05-12T05:33:23.826Z,103342.61
2019-05-12T05:35:54.310Z,103344.53
2019-05-12T05:38:23.826Z,103351.95
2019-05-12T05:40:54.131Z,103360.66
2019-05-12T05:43:24.237Z,103360.27
2019-05-12T05:46:02.087Z,103370.36
2019-05-12T05:48:24.874Z,103369.78
2019-05-12T05:50:54.282Z,103371.41
2019-05-12T05:53:24.295Z,103381.97
2019-05-12T05:55:56.278Z,103377.77
2019-05-12T05:58:26.213Z,103373.40
2019-05-12T06:01:03.728Z,103384.67
2019-05-12T06:03:30.066Z,103381.63
2019-05-12T06:06:01.552Z,103378.45
2019-05-12T06:08:30.885Z,103387.61
2019-05-12T06:11:00.602Z,103388.75
2019-05-12T06:13:31.936Z,103387.66
2019-05-12T06:16:01.414Z,103389.50
2019-05-12T06:18:33.290Z,103391.58
2019-05-12T06:24:33.467Z,103398.76
2019-05-12T06:27:14.321Z,103395.81
2019-05-12T06:29:34.123Z,103404.28
2019-05-12T06:32:06.419Z,103402.40
2019-05-12T06:34:34.690Z,103405.66
2019-05-12T06:37:11.991Z,103413.11
2019-05-12T06:39:35.620Z,103412.34
2019-05-12T06:42:12.384Z,103414.36
2019-05-12T06:44:36.348Z,103414.91
2019-05-12T06:47:08.160Z,103408.63
2019-05-12T06:49:36.988Z,103408.02
2019-05-12T06:52:07.306Z,103408.30
2019-05-12T06:54:36.883Z,103413.06
2019-05-12T06:57:20.983Z,103407.28
2019-05-12T06:59:41.983Z,103418.00
2019-05-12T07:02:08.686Z,103409.87
2019-05-12T07:04:41.250Z,103407.19
2019-05-12T07:07:09.262Z,103411.68
2019-05-12T07:09:50.067Z,103420.22
2019-05-12T07:12:09.875Z,103416.87
2019-05-12T07:14:39.281Z,103420.64
2019-05-12T07:17:28.742Z,103421.05
2019-05-12T07:19:58.454Z,103422.65
2019-05-12T07:22:31.249Z,103416.25
2019-05-12T07:24:59.390Z,103428.00
2019-05-12T07:27:36.645Z,103433.52
2019-05-12T07:30:00.037Z,103430.47
2019-05-12T07:32:30.771Z,103424.55
2019-05-12T07:35:00.179Z,103422.68
2019-05-12T07:37:33.970Z,103425.95
2019-05-12T07:40:08.041Z,103427.42
2019-05-12T07:42:39.586Z,103439.30
2019-05-12T07:45:11.489Z,103441.78
2019-05-12T07:47:40.602Z,103440.88
2019-05-12T07:50:15.420Z,103444.55
2019-05-12T07:52:44.025Z,103444.80
2019-05-12T07:55:14.715Z,103443.20
2019-05-12T07:57:55.210Z,103447.09
2019-05-12T08:00:25.713Z,103458.25
2019-05-12T08:02:48.314Z,103459.88
2019-05-12T08:05:19.871Z,103462.08
2019-05-12T08:07:50.496Z,103461.94
2019-05-12T08:10:20.350Z,103457.30
2019-05-12T08:12:51.080Z,103454.55
2019-05-12T08:15:21.050Z,103448.07
2019-05-12T08:17:55.341Z,103454.07
2019-05-12T08:20:23.781Z,103461.59
2019-05-12T08:22:54.129Z,103457.01
2019-05-12T08:25:28.457Z,103461.05
2019-05-12T08:28:10.182Z,103463.14
2019-05-12T08:30:40.313Z,103459.31
2019-05-12T08:33:09.617Z,103463.30
2019-05-12T08:35:38.593Z,103466.48
2019-05-12T08:38:08.703Z,103472.98
2019-05-12T08:40:48.788Z,103472.04
2019-05-12T08:43:10.722Z,103471.95
2019-05-12T08:45:40.329Z,103480.50
2019-05-12T08:48:10.522Z,103477.48
2019-05-12T08:50:42.972Z,103469.92
2019-05-12T08:53:20.336Z,103481.50
2019-05-12T08:55:43.652Z,103480.11
2019-05-12T08:58:29.870Z,103476.70
2019-05-12T09:00:50.151Z,103474.28
2019-05-12T09:03:20.578Z,103477.11
2019-05-12T09:05:47.074Z,103477.67
2019-05-12T09:08:17.032Z,103481.48
2019-05-12T09:10:46.452Z,103474.88
2019-05-12T09:13:15.946Z,103488.77
2019-05-12T09:15:45.393Z,103484.27
2019-05-12T09:18:14.819Z,103487.58
2019-05-12T09:20:51.254Z,103495.30
2019-05-12T09:23:15.407Z,103499.02
2019-05-12T09:25:48.320Z,103493.17
2019-05-12T09:28:16.337Z,103496.30
2019-05-12T09:30:49.309Z,103503.12
2019-05-12T09:33:21.540Z,103506.62
2019-05-12T09:35:48.002Z,103509.03
2019-05-12T09:38:21.539Z,103502.69
2019-05-12T09:40:52.902Z,103496.45
2019-05-12T09:43:20.173Z,103495.47
2019-05-12T09:45:55.719Z,103484.94
2019-05-12T09:48:20.971Z,103496.17
2019-05-12T09:50:51.620Z,103491.66
2019-05-12T09:53:23.674Z,103494.44
2019-05-12T09:55:53.934Z,103505.59
2019-05-12T09:58:27.631Z,103502.54
2019-05-12T10:00:54.564Z,103505.27
2019-05-12T10:03:24.266Z,103515.57
2019-05-12T10:05:53.913Z,103523.17
2019-05-12T10:08:24.188Z,103526.80
2019-05-12T10:13:30.124Z,103514.82
2019-05-12T10:15:58.691Z,103514.09
2019-05-12T10:18:28.656Z,103515.70
2019-05-12T10:20:58.247Z,103514.54
2019-05-12T10:23:29.401Z,103514.56
2019-05-12T10:26:01.535Z,103518.48
2019-05-12T10:28:29.985Z,103523.75
2019-05-12T10:30:59.402Z,103518.56
2019-05-12T10:33:28.845Z,103518.75
2019-05-12T10:35:59.467Z,103524.83
2019-05-12T10:38:29.482Z,103528.86
2019-05-12T10:40:58.953Z,103528.36
2019-05-12T10:43:28.383Z,103525.72
2019-05-12T10:45:57.890Z,103527.41
2019-05-12T10:48:27.331Z,103518.80
2019-05-12T10:50:57.061Z,103529.16
2019-05-12T10:53:26.539Z,103527.61
2019-05-12T10:55:55.948Z,103520.12
2019-05-12T10:58:25.396Z,103523.73
2019-05-12T11:00:58.880Z,103525.46
2019-05-12T11:03:26.075Z,103524.39
2019-05-12T11:06:02.775Z,103522.93
2019-05-12T11:08:26.646Z,103520.52
2019-05-12T11:10:59.987Z,103514.53
2019-05-12T11:13:27.242Z,103516.95
2019-05-12T11:15:56.702Z,103510.69
2019-05-12T11:18:30.504Z,103521.45
2019-05-12T11:20:57.618Z,103525.11
2019-05-12T11:23:27.411Z,103522.11
2019-05-12T11:25:56.843Z,103521.84
2019-05-12T11:28:26.581Z,103521.42
2019-05-12T11:30:56.287Z,103516.66
2019-05-12T11:33:25.738Z,103508.06
2019-05-12T11:35:55.165Z,103509.15
2019-05-12T11:38:24.602Z,103507.16
2019-05-12T11:40:54.040Z,103508.16
2019-05-12T11:43:24.832Z,103518.95
2019-05-12T11:45:54.694Z,103525.57
2019-05-12T11:48:24.106Z,103522.97
2019-05-12T11:50:54.437Z,103542.33
2019-05-12T11:53:30.810Z,103538.75
2019-05-12T11:55:55.395Z,103543.11
2019-05-12T11:58:24.827Z,103546.11
2019-05-12T12:00:58.552Z,103556.09
2019-05-12T12:03:27.148Z,103552.77
2019-05-12T12:05:56.619Z,103553.59
2019-05-12T12:08:32.053Z,103554.09
2019-05-12T12:10:57.684Z,103556.25
2019-05-12T12:13:29.892Z,103559.01
2019-05-12T12:16:00.514Z,103548.22
2019-05-12T12:18:29.409Z,103551.59
2019-05-12T12:21:04.290Z,103538.45
2019-05-12T12:23:30.069Z,103543.73
2019-05-12T12:25:59.495Z,103548.25
2019-05-12T12:28:29.259Z,103557.73
2019-05-12T12:31:01.147Z,103548.47
2019-05-12T12:33:31.170Z,103558.28
2019-05-12T12:36:01.003Z,103550.67
2019-05-12T12:38:30.586Z,103549.42
2019-05-12T12:41:00.044Z,103555.47
2019-05-12T12:43:29.746Z,103563.41
2019-05-12T12:46:17.853Z,103557.55
2019-05-12T12:48:47.033Z,103557.84
